Venice Center, New York
Current Conditions -  °F | °C
As of 7:56 PM on Friday 21 Nov 2014 (Local Time) from KITH Reporting Station
Scattered Clouds Scattered Clouds  
Wind Chill: 15°   Ceiling: Unl
Heat Index: 21°   Visibility: 10mi
Dew Point: 13°   Wind: 5mph
Humidity: 71%   Direction: 250°WSW
Pressure: 30.42"   Gusts: NA
Location:  42.7818°N, 76.5651°W
Report Text: KITH 220056Z 25004KT 10SM SCT035 M06/M11 A3042 RMK AO2 T10611105 SLP320
Loading
Personal Weather Stations






























Interactive Weather Map New forecast layout! Learn more

10-Day Weather Forecast

Advertisements
Track Severe Weather on mobile